createdAt,value
2018-03-19T00:02:01.297Z,-0.50
2018-03-19T00:04:27.739Z,-0.50
2018-03-19T00:06:54.287Z,-0.50
2018-03-19T00:09:20.755Z,-0.60
2018-03-19T00:11:47.204Z,-0.60
2018-03-19T00:14:13.695Z,-0.60
2018-03-19T00:16:40.180Z,-0.60
2018-03-19T00:19:07.468Z,-0.60
2018-03-19T00:21:33.974Z,-0.60
2018-03-19T00:24:00.492Z,-0.50
2018-03-19T00:26:26.961Z,-0.50
2018-03-19T00:28:53.439Z,-0.50
2018-03-19T00:31:19.909Z,-0.50
2018-03-19T00:33:46.282Z,-0.50
2018-03-19T00:36:12.702Z,-0.40
2018-03-19T00:38:39.152Z,-0.40
2018-03-19T00:41:05.655Z,-0.50
2018-03-19T00:43:32.102Z,-0.60
2018-03-19T00:45:58.559Z,-0.60
2018-03-19T00:48:24.925Z,-0.60
2018-03-19T00:50:52.056Z,-0.50
2018-03-19T00:53:18.413Z,-0.50
2018-03-19T00:55:44.819Z,-0.50
2018-03-19T00:58:11.969Z,-0.40
2018-03-19T01:00:39.112Z,-0.40
2018-03-19T01:03:05.537Z,-0.40
2018-03-19T01:05:31.962Z,-0.50
2018-03-19T01:07:58.395Z,-0.70
2018-03-19T01:10:24.821Z,-0.80
2018-03-19T01:12:51.261Z,-0.90
2018-03-19T01:15:17.661Z,-0.80
2018-03-19T01:17:44.120Z,-0.80
2018-03-19T01:20:10.468Z,-0.90
2018-03-19T01:22:37.668Z,-1.00
2018-03-19T01:25:04.062Z,-1.00
2018-03-19T01:27:31.240Z,-1.00
2018-03-19T01:29:57.626Z,-1.00
2018-03-19T01:32:24.062Z,-0.90
2018-03-19T01:34:51.167Z,-0.80
2018-03-19T01:37:17.657Z,-0.70
2018-03-19T01:39:44.037Z,-0.70
2018-03-19T01:42:10.433Z,-0.70
2018-03-19T01:44:36.828Z,-0.70
2018-03-19T01:47:04.918Z,-0.60
2018-03-19T01:49:32.122Z,-0.60
2018-03-19T01:51:59.314Z,-0.60
2018-03-19T01:54:25.710Z,-0.70
2018-03-19T01:56:52.093Z,-0.70
2018-03-19T01:59:18.497Z,-0.80
2018-03-19T02:01:45.645Z,-0.70
2018-03-19T02:04:12.746Z,-0.70
2018-03-19T02:06:39.145Z,-0.70
2018-03-19T02:09:05.569Z,-0.70
2018-03-19T02:11:31.974Z,-0.60
2018-03-19T02:13:58.390Z,-0.70
2018-03-19T02:16:24.771Z,-0.80
2018-03-19T02:18:51.257Z,-0.80
2018-03-19T02:21:17.634Z,-0.90
2018-03-19T02:23:43.999Z,-0.80
2018-03-19T02:26:10.441Z,-0.80
2018-03-19T02:28:36.821Z,-0.70
2018-03-19T02:31:03.237Z,-0.70
2018-03-19T02:33:29.654Z,-0.60
2018-03-19T02:35:56.903Z,-0.60
2018-03-19T02:38:23.247Z,-0.60
2018-03-19T02:40:49.681Z,-0.50
2018-03-19T02:43:16.805Z,-0.70
2018-03-19T02:45:43.937Z,-0.70
2018-03-19T02:48:10.302Z,-0.70
2018-03-19T02:50:37.421Z,-0.60
2018-03-19T02:53:03.811Z,-0.70
2018-03-19T02:55:30.173Z,-0.70
2018-03-19T02:57:56.607Z,-0.70
2018-03-19T03:00:23.017Z,-0.70
2018-03-19T03:02:49.418Z,-0.70
2018-03-19T03:05:15.793Z,-0.60
2018-03-19T03:07:42.192Z,-0.70
2018-03-19T03:10:08.697Z,-0.70
2018-03-19T03:12:35.090Z,-0.70
2018-03-19T03:15:01.533Z,-0.60
2018-03-19T03:17:28.691Z,-0.70
2018-03-19T03:19:55.085Z,-0.70
2018-03-19T03:22:22.228Z,-0.70
2018-03-19T03:24:48.596Z,-0.70
2018-03-19T03:27:14.970Z,-0.70
2018-03-19T03:29:41.366Z,-0.70
2018-03-19T03:32:07.765Z,-0.80
2018-03-19T03:34:34.195Z,-0.70
2018-03-19T03:37:00.599Z,-0.70
2018-03-19T03:39:26.960Z,-0.70
2018-03-19T03:41:53.402Z,-0.70
2018-03-19T03:44:19.821Z,-0.80
2018-03-19T03:46:46.224Z,-0.80
2018-03-19T03:49:12.605Z,-0.70
2018-03-19T03:51:38.988Z,-0.70
2018-03-19T03:54:05.368Z,-0.70
2018-03-19T03:56:31.806Z,-0.80
2018-03-19T03:58:58.221Z,-0.80
2018-03-19T04:01:24.580Z,-0.80
2018-03-19T04:03:51.712Z,-0.70
2018-03-19T04:06:18.131Z,-0.70
2018-03-19T04:08:44.547Z,-0.90
2018-03-19T04:11:10.784Z,-0.80
2018-03-19T04:13:37.215Z,-0.80
2018-03-19T04:16:03.698Z,-0.80
2018-03-19T04:18:30.066Z,-0.80
2018-03-19T04:20:56.461Z,-0.80
2018-03-19T04:23:22.850Z,-0.80
2018-03-19T04:25:49.242Z,-0.80
2018-03-19T04:28:15.613Z,-0.80
2018-03-19T04:30:41.998Z,-0.90
2018-03-19T04:33:08.387Z,-0.90
2018-03-19T04:35:34.788Z,-0.90
2018-03-19T04:38:01.165Z,-0.90
2018-03-19T04:40:28.283Z,-0.90
2018-03-19T04:42:54.677Z,-0.90
2018-03-19T04:45:21.081Z,-0.90
2018-03-19T04:47:47.468Z,-0.90
2018-03-19T04:50:13.853Z,-0.90
2018-03-19T04:52:40.244Z,-0.90
2018-03-19T04:55:06.601Z,-0.90
2018-03-19T04:57:33.007Z,-0.90
2018-03-19T04:59:59.385Z,-0.90
2018-03-19T05:02:25.785Z,-0.90
2018-03-19T05:04:52.173Z,-0.90
2018-03-19T05:07:18.523Z,-1.00
2018-03-19T05:09:44.963Z,-1.00
2018-03-19T05:12:11.342Z,-1.00
2018-03-19T05:14:37.903Z,-0.90
2018-03-19T05:17:04.238Z,-0.90
2018-03-19T05:19:30.688Z,-0.90
2018-03-19T05:21:57.825Z,-0.90
2018-03-19T05:24:24.236Z,-0.90
2018-03-19T05:26:50.678Z,-0.90
2018-03-19T05:29:17.099Z,-0.90
2018-03-19T05:31:43.499Z,-1.00
2018-03-19T05:34:09.933Z,-1.00
2018-03-19T05:36:36.458Z,-0.90
2018-03-19T05:39:03.024Z,-0.90
2018-03-19T05:41:29.574Z,-1.00
2018-03-19T05:43:56.033Z,-1.00
2018-03-19T05:46:22.474Z,-0.90
2018-03-19T05:48:48.870Z,-0.90
2018-03-19T05:51:15.330Z,-0.90
2018-03-19T05:53:42.449Z,-0.90
2018-03-19T05:56:08.801Z,-1.00
2018-03-19T05:58:35.209Z,-0.90
2018-03-19T06:01:01.597Z,-1.00
2018-03-19T06:03:28.044Z,-0.90
2018-03-19T06:05:54.453Z,-0.90
2018-03-19T06:08:20.876Z,-0.80
2018-03-19T06:10:47.266Z,-0.90
2018-03-19T06:13:13.612Z,-0.90
2018-03-19T06:15:40.065Z,-0.90
2018-03-19T06:18:07.204Z,-0.90
2018-03-19T06:20:33.589Z,-0.90
2018-03-19T06:22:59.964Z,-1.00
2018-03-19T06:25:26.374Z,-0.90
2018-03-19T06:27:52.754Z,-0.90
2018-03-19T06:30:19.163Z,-0.90
2018-03-19T06:32:45.733Z,-0.80
2018-03-19T06:35:12.162Z,-0.80
2018-03-19T06:37:38.556Z,-0.80
2018-03-19T06:40:05.697Z,-0.70
2018-03-19T06:42:32.958Z,-0.80
2018-03-19T06:44:59.357Z,-0.80
2018-03-19T06:47:25.842Z,-0.70
2018-03-19T06:49:52.202Z,-0.70
2018-03-19T06:52:20.658Z,-0.70
2018-03-19T06:54:47.029Z,-0.60
2018-03-19T06:57:13.420Z,-0.50
2018-03-19T06:59:39.762Z,-0.50
2018-03-19T07:02:06.166Z,-0.50
2018-03-19T07:04:32.590Z,-0.40
2018-03-19T07:06:59.712Z,-0.30
2018-03-19T07:09:26.096Z,-0.40
2018-03-19T07:11:52.503Z,-0.30
2018-03-19T07:14:18.910Z,-0.20
2018-03-19T07:16:46.050Z,-0.30
2018-03-19T07:19:12.429Z,-0.30
2018-03-19T07:21:38.793Z,-0.30
2018-03-19T07:24:05.181Z,-0.20
2018-03-19T07:26:31.551Z,-0.20
2018-03-19T07:28:57.964Z,-0.30
2018-03-19T07:31:24.509Z,-0.50
2018-03-19T07:33:51.242Z,-0.40
2018-03-19T07:36:17.617Z,-0.20
2018-03-19T07:38:43.999Z,-0.20
2018-03-19T07:41:10.374Z,-0.10
2018-03-19T07:43:36.782Z,-0.10
2018-03-19T07:46:03.182Z,-0.30
2018-03-19T07:48:29.601Z,-0.20
2018-03-19T07:50:56.032Z,-0.10
2018-03-19T07:53:22.384Z,0.00
2018-03-19T07:55:48.821Z,0.00
2018-03-19T07:58:15.215Z,0.00
2018-03-19T08:00:42.353Z,-0.10
2018-03-19T08:03:08.743Z,-0.10
2018-03-19T08:05:35.185Z,-0.10
2018-03-19T08:08:01.579Z,-0.10
2018-03-19T08:10:27.974Z,-0.10
2018-03-19T08:12:55.163Z,0.10
2018-03-19T08:15:21.552Z,0.10
2018-03-19T08:17:47.992Z,0.00
2018-03-19T08:20:15.125Z,0.00
2018-03-19T08:22:42.270Z,-0.10
2018-03-19T08:25:08.644Z,-0.10
2018-03-19T08:27:35.041Z,0.00
2018-03-19T08:30:02.184Z,0.20
2018-03-19T08:32:28.575Z,0.20
2018-03-19T08:34:54.946Z,0.20
2018-03-19T08:37:21.310Z,0.10
2018-03-19T08:39:47.699Z,0.20
2018-03-19T08:42:14.813Z,0.30
2018-03-19T08:44:41.212Z,0.30
2018-03-19T08:47:07.558Z,0.20
2018-03-19T08:49:33.999Z,0.30
2018-03-19T08:52:00.394Z,0.20
2018-03-19T08:54:26.830Z,0.00
2018-03-19T08:56:53.225Z,0.10
2018-03-19T08:59:19.607Z,0.00
2018-03-19T09:01:45.990Z,0.10
2018-03-19T09:04:13.957Z,0.30
2018-03-19T09:06:40.418Z,0.30
2018-03-19T09:09:06.888Z,0.50
2018-03-19T09:11:33.235Z,0.70
2018-03-19T09:13:59.663Z,0.90
2018-03-19T09:16:26.035Z,0.90
2018-03-19T09:18:53.172Z,1.00
2018-03-19T09:21:19.547Z,1.00
2018-03-19T09:23:45.930Z,1.00
2018-03-19T09:26:12.282Z,0.60
2018-03-19T09:28:38.768Z,0.50
2018-03-19T09:31:05.309Z,0.40
2018-03-19T09:33:31.685Z,0.60
2018-03-19T09:35:58.058Z,0.80
2018-03-19T09:38:24.480Z,1.00
2018-03-19T09:40:50.910Z,1.00
2018-03-19T09:43:17.354Z,0.60
2018-03-19T09:45:43.756Z,0.60
2018-03-19T09:48:10.169Z,0.50
2018-03-19T09:50:36.644Z,0.50
2018-03-19T09:53:03.025Z,0.40
2018-03-19T09:55:30.146Z,0.60
2018-03-19T09:57:56.545Z,0.60
2018-03-19T10:00:22.989Z,0.60
2018-03-19T10:02:50.277Z,0.50
2018-03-19T10:05:16.664Z,0.50
2018-03-19T10:07:43.129Z,0.60
2018-03-19T10:10:09.604Z,0.50
2018-03-19T10:12:36.787Z,0.50
2018-03-19T10:15:03.286Z,0.50
2018-03-19T10:17:29.682Z,0.60
2018-03-19T10:19:56.767Z,0.70
2018-03-19T10:22:23.224Z,0.70
2018-03-19T10:24:49.597Z,0.50
2018-03-19T10:27:16.694Z,0.40
2018-03-19T10:29:43.895Z,0.40
2018-03-19T10:32:11.009Z,0.50
2018-03-19T10:34:37.438Z,0.50
2018-03-19T10:37:03.859Z,0.40
2018-03-19T10:39:30.284Z,0.20
2018-03-19T10:41:56.652Z,0.20
2018-03-19T10:44:23.064Z,0.20
2018-03-19T10:46:49.494Z,0.30
2018-03-19T10:49:15.910Z,0.30
2018-03-19T10:51:42.281Z,0.40
2018-03-19T10:54:09.425Z,0.70
2018-03-19T10:56:35.852Z,0.70
2018-03-19T10:59:02.274Z,0.90
2018-03-19T11:01:34.785Z,0.60
2018-03-19T11:04:01.233Z,0.70
2018-03-19T11:06:33.618Z,0.70
2018-03-19T11:09:06.096Z,0.90
2018-03-19T11:11:32.489Z,1.00
2018-03-19T11:13:58.938Z,1.00
2018-03-19T11:16:25.330Z,0.80
2018-03-19T11:18:51.701Z,0.70
2018-03-19T11:21:18.106Z,0.50
2018-03-19T11:23:44.570Z,0.50
2018-03-19T11:26:10.983Z,0.70
2018-03-19T11:28:37.404Z,0.70
2018-03-19T11:31:03.850Z,0.90
2018-03-19T11:33:30.275Z,1.00
2018-03-19T11:35:57.457Z,1.10
2018-03-19T11:38:23.896Z,1.10
2018-03-19T11:40:50.356Z,1.30
2018-03-19T11:43:16.834Z,0.90
2018-03-19T11:45:43.240Z,1.00
2018-03-19T11:48:10.426Z,1.40
2018-03-19T11:50:36.842Z,1.50
2018-03-19T11:53:03.326Z,1.60
2018-03-19T11:55:29.742Z,1.50
2018-03-19T11:57:56.154Z,1.50
2018-03-19T12:00:22.578Z,1.70
2018-03-19T12:02:49.057Z,1.60
2018-03-19T12:05:15.479Z,1.20
2018-03-19T12:07:42.625Z,1.20
2018-03-19T12:10:09.059Z,1.40
2018-03-19T12:12:35.405Z,1.50
2018-03-19T12:15:01.812Z,1.80
2018-03-19T12:17:28.233Z,2.00
2018-03-19T12:19:54.595Z,2.10
2018-03-19T12:22:21.795Z,1.90
2018-03-19T12:24:48.238Z,1.90
2018-03-19T12:27:14.655Z,1.80
2018-03-19T12:29:41.644Z,1.80
2018-03-19T12:32:08.064Z,1.90
2018-03-19T12:34:34.401Z,1.90
2018-03-19T12:37:00.776Z,1.60
2018-03-19T12:39:27.203Z,1.80
2018-03-19T12:41:53.635Z,1.90
2018-03-19T12:44:20.754Z,1.80
2018-03-19T12:46:47.122Z,1.70
2018-03-19T12:49:13.522Z,1.80
2018-03-19T12:51:40.714Z,1.90
2018-03-19T12:54:07.183Z,1.90
2018-03-19T12:56:33.623Z,1.90
2018-03-19T12:59:00.008Z,1.50
2018-03-19T13:01:26.844Z,1.20
2018-03-19T13:03:53.921Z,1.00
2018-03-19T13:06:20.367Z,1.00
2018-03-19T13:08:46.722Z,1.20
2018-03-19T13:11:13.130Z,1.20
2018-03-19T13:13:39.570Z,1.30
2018-03-19T13:16:05.999Z,1.40
2018-03-19T13:18:32.510Z,1.50
2018-03-19T13:20:58.881Z,1.40
2018-03-19T13:23:26.023Z,1.30
2018-03-19T13:25:52.399Z,1.20
2018-03-19T13:28:18.821Z,1.30
2018-03-19T13:30:45.185Z,1.50
2018-03-19T13:33:11.653Z,1.30
2018-03-19T13:35:38.776Z,1.60
2018-03-19T13:38:05.151Z,1.60
2018-03-19T13:40:31.561Z,1.40
2018-03-19T13:42:57.951Z,1.30
2018-03-19T13:45:24.411Z,1.40
2018-03-19T13:47:50.787Z,1.40
2018-03-19T13:50:17.212Z,1.50
2018-03-19T13:52:43.591Z,1.40
2018-03-19T13:55:10.009Z,1.40
2018-03-19T13:57:36.361Z,1.50
2018-03-19T14:00:02.912Z,1.50
2018-03-19T14:02:30.055Z,1.50
2018-03-19T14:04:56.949Z,1.50
2018-03-19T14:07:23.371Z,1.60
2018-03-19T14:09:49.829Z,1.60
2018-03-19T14:12:17.023Z,1.50
2018-03-19T14:14:44.266Z,1.40
2018-03-19T14:17:10.676Z,1.40
2018-03-19T14:19:37.100Z,1.50
2018-03-19T14:22:03.536Z,1.60
2018-03-19T14:24:29.953Z,1.60
2018-03-19T14:26:56.426Z,1.50
2018-03-19T14:29:22.918Z,1.50
2018-03-19T14:31:49.275Z,1.60
2018-03-19T14:34:16.475Z,1.60
2018-03-19T14:36:43.736Z,1.50
2018-03-19T14:39:10.155Z,1.50
2018-03-19T14:41:37.350Z,1.60
2018-03-19T14:44:03.805Z,1.60
2018-03-19T14:46:30.903Z,1.50
2018-03-19T14:49:04.168Z,1.50
2018-03-19T14:51:30.540Z,1.50
2018-03-19T14:53:57.069Z,1.40
2018-03-19T14:56:23.457Z,1.40
2018-03-19T14:58:49.861Z,1.20
2018-03-19T15:01:17.027Z,1.20
2018-03-19T15:03:44.145Z,1.10
2018-03-19T15:06:10.521Z,1.10
2018-03-19T15:08:36.915Z,1.30
2018-03-19T15:11:03.391Z,1.30
2018-03-19T15:13:29.865Z,1.40
2018-03-19T15:15:56.268Z,1.50
2018-03-19T15:18:22.689Z,1.40
2018-03-19T15:20:49.102Z,1.30
2018-03-19T15:23:15.546Z,1.20
2018-03-19T15:25:41.995Z,1.20
2018-03-19T15:28:08.458Z,1.10
2018-03-19T15:30:34.862Z,1.00
2018-03-19T15:33:01.314Z,0.80
2018-03-19T15:35:27.689Z,0.90
2018-03-19T15:37:54.133Z,0.80
2018-03-19T15:40:20.555Z,0.80
2018-03-19T15:42:46.929Z,0.70
2018-03-19T15:45:13.365Z,0.70
2018-03-19T15:47:39.749Z,0.90
2018-03-19T15:50:06.200Z,0.90
2018-03-19T15:52:33.377Z,1.00
2018-03-19T15:54:59.851Z,1.00
2018-03-19T15:57:26.325Z,1.00
2018-03-19T15:59:52.719Z,1.00
2018-03-19T16:02:19.093Z,1.00
2018-03-19T16:04:45.506Z,0.90
2018-03-19T16:07:11.866Z,1.00
2018-03-19T16:09:38.280Z,1.10
2018-03-19T16:12:04.690Z,1.10
2018-03-19T16:14:31.087Z,1.20
2018-03-19T16:16:57.552Z,1.20
2018-03-19T16:19:23.978Z,1.20
2018-03-19T16:21:50.414Z,1.20
2018-03-19T16:24:16.786Z,1.00
2018-03-19T16:26:44.659Z,1.10
2018-03-19T16:29:11.065Z,1.10
2018-03-19T16:31:37.507Z,1.10
2018-03-19T16:34:03.911Z,1.10
2018-03-19T16:36:30.358Z,1.10
2018-03-19T16:38:56.755Z,1.10
2018-03-19T16:41:23.173Z,1.10
2018-03-19T16:43:50.408Z,1.10
2018-03-19T16:46:17.529Z,1.10
2018-03-19T16:48:43.905Z,1.10
2018-03-19T16:51:10.329Z,1.10
2018-03-19T16:53:37.471Z,1.10
2018-03-19T16:56:04.608Z,1.10
2018-03-19T16:58:31.052Z,1.10
2018-03-19T17:00:57.462Z,1.00
2018-03-19T17:03:23.905Z,1.00
2018-03-19T17:05:50.336Z,1.00
2018-03-19T17:08:16.713Z,0.90
2018-03-19T17:10:43.102Z,0.90
2018-03-19T17:13:09.489Z,0.80
2018-03-19T17:15:35.938Z,0.80
2018-03-19T17:18:03.339Z,0.70
2018-03-19T17:20:29.782Z,0.70
2018-03-19T17:22:56.177Z,0.60
2018-03-19T17:25:22.590Z,0.70
2018-03-19T17:27:49.002Z,0.80
2018-03-19T17:30:15.460Z,0.80
2018-03-19T17:32:41.934Z,0.90
2018-03-19T17:35:08.366Z,0.90
2018-03-19T17:37:34.777Z,0.90
2018-03-19T17:40:01.978Z,0.80
2018-03-19T17:42:28.384Z,0.80
2018-03-19T17:44:54.770Z,0.70
2018-03-19T17:47:21.150Z,0.80
2018-03-19T17:49:47.814Z,0.80
2018-03-19T17:52:14.243Z,0.80
2018-03-19T17:54:40.683Z,0.70
2018-03-19T17:57:07.153Z,0.80
2018-03-19T17:59:34.286Z,0.80
2018-03-19T18:02:00.744Z,0.80
2018-03-19T18:04:27.253Z,0.80
2018-03-19T18:06:54.471Z,0.80
2018-03-19T18:09:21.016Z,0.80
2018-03-19T18:11:47.474Z,0.80
2018-03-19T18:14:13.921Z,0.70
2018-03-19T18:16:42.523Z,0.70
2018-03-19T18:19:08.962Z,0.70
2018-03-19T18:21:35.462Z,0.60
2018-03-19T18:24:02.681Z,0.50
2018-03-19T18:26:29.243Z,0.50
2018-03-19T18:28:55.730Z,0.50
2018-03-19T18:31:22.226Z,0.60
2018-03-19T18:33:48.643Z,0.60
2018-03-19T18:36:15.109Z,0.60
2018-03-19T18:38:41.500Z,0.70
2018-03-19T18:41:07.941Z,0.70
2018-03-19T18:43:35.071Z,0.80
2018-03-19T18:46:02.318Z,0.80
2018-03-19T18:48:28.769Z,0.80
2018-03-19T18:50:55.323Z,0.70
2018-03-19T18:53:21.758Z,0.80
2018-03-19T18:55:48.241Z,0.80
2018-03-19T18:58:14.667Z,0.80
2018-03-19T19:00:41.255Z,0.70
2018-03-19T19:03:07.721Z,0.70
2018-03-19T19:05:34.177Z,0.60
2018-03-19T19:08:00.646Z,0.60
2018-03-19T19:10:27.864Z,0.70
2018-03-19T19:12:56.062Z,0.80
2018-03-19T19:15:22.492Z,0.80
2018-03-19T19:17:48.895Z,0.80
2018-03-19T19:20:15.381Z,0.70
2018-03-19T19:22:41.871Z,0.70
2018-03-19T19:25:08.416Z,0.70
2018-03-19T19:27:35.602Z,0.70
2018-03-19T19:30:02.114Z,0.80
2018-03-19T19:32:28.581Z,0.70
2018-03-19T19:34:55.082Z,0.70
2018-03-19T19:37:21.552Z,0.70
2018-03-19T19:39:48.162Z,0.70
2018-03-19T19:42:14.693Z,0.70
2018-03-19T19:44:41.114Z,0.70
2018-03-19T19:47:07.624Z,0.70
2018-03-19T19:49:34.095Z,0.70
2018-03-19T19:52:01.642Z,0.70
2018-03-19T19:54:28.102Z,0.70
2018-03-19T19:56:54.595Z,0.70
2018-03-19T19:59:21.047Z,0.80
2018-03-19T20:01:47.596Z,0.70
2018-03-19T20:04:14.069Z,0.70
2018-03-19T20:06:40.528Z,0.70
2018-03-19T20:09:07.744Z,0.70
2018-03-19T20:11:34.215Z,0.70
2018-03-19T20:14:00.750Z,0.70
2018-03-19T20:16:27.249Z,0.80
2018-03-19T20:18:53.900Z,0.80
2018-03-19T20:21:20.361Z,0.70
2018-03-19T20:23:46.842Z,0.70
2018-03-19T20:26:13.296Z,0.70
2018-03-19T20:28:39.727Z,0.70
2018-03-19T20:31:07.004Z,0.80
2018-03-19T20:33:33.490Z,0.80
2018-03-19T20:36:00.024Z,0.70
2018-03-19T20:38:26.623Z,0.70
2018-03-19T20:40:53.209Z,0.80
2018-03-19T20:43:19.667Z,0.80
2018-03-19T20:45:46.203Z,0.70
2018-03-19T20:48:12.730Z,0.80
2018-03-19T20:50:39.201Z,0.80
2018-03-19T20:53:05.770Z,0.80
2018-03-19T20:55:32.215Z,0.80
2018-03-19T20:57:59.368Z,0.80
2018-03-19T21:00:25.778Z,0.70
2018-03-19T21:02:52.229Z,0.80
2018-03-19T21:05:19.427Z,0.60
2018-03-19T21:07:45.866Z,0.60
2018-03-19T21:10:12.352Z,0.70
2018-03-19T21:12:39.638Z,0.80
2018-03-19T21:15:06.093Z,0.80
2018-03-19T21:17:32.520Z,0.70
2018-03-19T21:19:58.949Z,0.60
2018-03-19T21:22:25.400Z,0.60
2018-03-19T21:24:51.814Z,0.70
2018-03-19T21:27:18.276Z,0.70
2018-03-19T21:29:44.730Z,0.70
2018-03-19T21:32:11.954Z,0.70
2018-03-19T21:34:38.460Z,0.70
2018-03-19T21:37:04.930Z,0.60
2018-03-19T21:39:31.359Z,0.60
2018-03-19T21:41:57.901Z,0.60
2018-03-19T21:44:25.157Z,0.50
2018-03-19T21:46:51.675Z,0.50
2018-03-19T21:49:18.110Z,0.60
2018-03-19T21:51:45.291Z,0.60
2018-03-19T21:54:11.831Z,0.60
2018-03-19T21:56:38.247Z,0.70
2018-03-19T21:59:05.416Z,0.70
2018-03-19T22:01:31.859Z,0.70
2018-03-19T22:03:58.265Z,0.70
2018-03-19T22:06:24.678Z,0.60
2018-03-19T22:08:51.838Z,0.70
2018-03-19T22:11:19.015Z,0.60
2018-03-19T22:13:45.518Z,0.60
2018-03-19T22:16:11.985Z,0.60
2018-03-19T22:18:38.474Z,0.40
2018-03-19T22:21:04.896Z,0.40
2018-03-19T22:23:31.338Z,0.30
2018-03-19T22:25:57.775Z,0.40
2018-03-19T22:28:24.163Z,0.40
2018-03-19T22:30:50.600Z,0.40
2018-03-19T22:33:17.018Z,0.40
2018-03-19T22:35:43.435Z,0.30
2018-03-19T22:38:09.847Z,0.30
2018-03-19T22:40:36.323Z,0.30
2018-03-19T22:43:03.466Z,0.30
2018-03-19T22:45:29.909Z,0.20
2018-03-19T22:47:56.307Z,0.30
2018-03-19T22:50:22.748Z,0.30
2018-03-19T22:52:49.191Z,0.30
2018-03-19T22:55:15.661Z,0.30
2018-03-19T22:57:42.127Z,0.30
2018-03-19T23:00:08.582Z,0.30
2018-03-19T23:02:34.989Z,0.30
2018-03-19T23:07:59.662Z,0.40
2018-03-19T23:10:26.041Z,0.40
2018-03-19T23:12:52.416Z,0.40
2018-03-19T23:15:18.970Z,0.30
2018-03-19T23:17:46.094Z,0.30
2018-03-19T23:20:12.532Z,0.30
2018-03-19T23:22:38.929Z,0.20
2018-03-19T23:25:05.330Z,0.10
2018-03-19T23:27:31.693Z,0.00
2018-03-19T23:29:58.088Z,0.10
2018-03-19T23:32:24.558Z,0.10
2018-03-19T23:34:50.995Z,0.00
2018-03-19T23:37:17.417Z,-0.10
2018-03-19T23:39:43.827Z,-0.10
2018-03-19T23:42:10.834Z,-0.10
2018-03-19T23:44:37.962Z,-0.20
2018-03-19T23:47:04.397Z,-0.30
2018-03-19T23:49:30.781Z,-0.30
2018-03-19T23:51:57.195Z,-0.40
2018-03-19T23:54:28.697Z,-0.40
2018-03-19T23:56:55.136Z,-0.50
2018-03-19T23:59:21.650Z,-0.40
